sensor_id;sensor_type;location;lat;lon;timestamp;P1;P2;P0
46240;PMS5003;31961;52.416;-0.732;2022-07-29T00:00:04;2;2;
46240;PMS5003;31961;52.416;-0.732;2022-07-29T00:02:32;4;3;
46240;PMS5003;31961;52.416;-0.732;2022-07-29T00:05:00;2;2;
46240;PMS5003;31961;52.416;-0.732;2022-07-29T00:07:27;4;4;
46240;PMS5003;31961;52.416;-0.732;2022-07-29T00:09:55;3;3;
46240;PMS5003;31961;52.416;-0.732;2022-07-29T00:12:23;2;2;
46240;PMS5003;31961;52.416;-0.732;2022-07-29T00:14:51;4;3;
46240;PMS5003;31961;52.416;-0.732;2022-07-29T00:17:19;4;3;
46240;PMS5003;31961;52.416;-0.732;2022-07-29T00:19:46;2;2;
46240;PMS5003;31961;52.416;-0.732;2022-07-29T00:22:14;5;3;
46240;PMS5003;31961;52.416;-0.732;2022-07-29T00:24:42;2;2;
46240;PMS5003;31961;52.416;-0.732;2022-07-29T00:27:09;3;3;
46240;PMS5003;31961;52.416;-0.732;2022-07-29T00:29:37;4;3;
46240;PMS5003;31961;52.416;-0.732;2022-07-29T00:32:04;3;2;
46240;PMS5003;31961;52.416;-0.732;2022-07-29T00:34:32;2;2;
46240;PMS5003;31961;52.416;-0.732;2022-07-29T00:36:59;3;2;
46240;PMS5003;31961;52.416;-0.732;2022-07-29T00:39:27;2;2;
46240;PMS5003;31961;52.416;-0.732;2022-07-29T00:41:54;1;1;
46240;PMS5003;31961;52.416;-0.732;2022-07-29T00:44:22;5;4;
46240;PMS5003;31961;52.416;-0.732;2022-07-29T00:46:50;2;2;
46240;PMS5003;31961;52.416;-0.732;2022-07-29T00:49:17;3;3;
46240;PMS5003;31961;52.416;-0.732;2022-07-29T00:51:45;4;3;
46240;PMS5003;31961;52.416;-0.732;2022-07-29T00:54:12;4;4;
46240;PMS5003;31961;52.416;-0.732;2022-07-29T00:56:40;5;3;
46240;PMS5003;31961;52.416;-0.732;2022-07-29T00:59:08;2;2;
46240;PMS5003;31961;52.416;-0.732;2022-07-29T01:01:35;3;2;
46240;PMS5003;31961;52.416;-0.732;2022-07-29T01:04:03;1;1;
46240;PMS5003;31961;52.416;-0.732;2022-07-29T01:06:32;5;4;
46240;PMS5003;31961;52.416;-0.732;2022-07-29T01:09:00;2;1;
46240;PMS5003;31961;52.416;-0.732;2022-07-29T01:11:28;3;3;
46240;PMS5003;31961;52.416;-0.732;2022-07-29T01:13:55;1;1;
46240;PMS5003;31961;52.416;-0.732;2022-07-29T01:16:25;2;2;
46240;PMS5003;31961;52.416;-0.732;2022-07-29T01:18:58;4;3;
46240;PMS5003;31961;52.416;-0.732;2022-07-29T01:21:38;3;2;
46240;PMS5003;31961;52.416;-0.732;2022-07-29T01:24:27;3;3;
46240;PMS5003;31961;52.416;-0.732;2022-07-29T01:27:09;5;4;
46240;PMS5003;31961;52.416;-0.732;2022-07-29T01:29:51;3;3;
46240;PMS5003;31961;52.416;-0.732;2022-07-29T01:32:22;3;3;
46240;PMS5003;31961;52.416;-0.732;2022-07-29T01:34:54;4;4;
46240;PMS5003;31961;52.416;-0.732;2022-07-29T01:37:26;2;2;
46240;PMS5003;31961;52.416;-0.732;2022-07-29T01:39:59;3;3;
46240;PMS5003;31961;52.416;-0.732;2022-07-29T01:42:31;2;2;
46240;PMS5003;31961;52.416;-0.732;2022-07-29T01:45:02;3;3;
46240;PMS5003;31961;52.416;-0.732;2022-07-29T01:47:38;5;4;
46240;PMS5003;31961;52.416;-0.732;2022-07-29T01:50:11;5;4;
46240;PMS5003;31961;52.416;-0.732;2022-07-29T01:52:43;3;3;
46240;PMS5003;31961;52.416;-0.732;2022-07-29T01:55:16;2;2;
46240;PMS5003;31961;52.416;-0.732;2022-07-29T01:57:46;2;2;
46240;PMS5003;31961;52.416;-0.732;2022-07-29T02:00:15;3;3;
46240;PMS5003;31961;52.416;-0.732;2022-07-29T02:02:44;2;2;
46240;PMS5003;31961;52.416;-0.732;2022-07-29T02:05:15;0;0;
46240;PMS5003;31961;52.416;-0.732;2022-07-29T02:07:46;3;3;
46240;PMS5003;31961;52.416;-0.732;2022-07-29T02:10:14;3;3;
46240;PMS5003;31961;52.416;-0.732;2022-07-29T02:12:44;5;3;
46240;PMS5003;31961;52.416;-0.732;2022-07-29T02:15:13;4;3;
46240;PMS5003;31961;52.416;-0.732;2022-07-29T02:17:43;2;2;
46240;PMS5003;31961;52.416;-0.732;2022-07-29T02:20:14;3;3;
46240;PMS5003;31961;52.416;-0.732;2022-07-29T02:22:42;3;3;
46240;PMS5003;31961;52.416;-0.732;2022-07-29T02:25:11;4;4;
46240;PMS5003;31961;52.416;-0.732;2022-07-29T02:27:39;1;1;
46240;PMS5003;31961;52.416;-0.732;2022-07-29T02:30:09;2;2;
46240;PMS5003;31961;52.416;-0.732;2022-07-29T02:32:37;3;2;
46240;PMS5003;31961;52.416;-0.732;2022-07-29T02:35:08;2;2;
46240;PMS5003;31961;52.416;-0.732;2022-07-29T02:37:38;3;3;
46240;PMS5003;31961;52.416;-0.732;2022-07-29T02:40:09;2;2;
46240;PMS5003;31961;52.416;-0.732;2022-07-29T02:42:40;2;2;
46240;PMS5003;31961;52.416;-0.732;2022-07-29T02:45:10;3;3;
46240;PMS5003;31961;52.416;-0.732;2022-07-29T02:47:39;1;1;
46240;PMS5003;31961;52.416;-0.732;2022-07-29T02:50:11;2;2;
46240;PMS5003;31961;52.416;-0.732;2022-07-29T02:52:43;3;2;
46240;PMS5003;31961;52.416;-0.732;2022-07-29T02:55:15;3;1;
46240;PMS5003;31961;52.416;-0.732;2022-07-29T02:57:46;4;4;
46240;PMS5003;31961;52.416;-0.732;2022-07-29T03:00:17;3;3;
46240;PMS5003;31961;52.416;-0.732;2022-07-29T03:02:45;3;3;
46240;PMS5003;31961;52.416;-0.732;2022-07-29T03:05:17;3;3;
46240;PMS5003;31961;52.416;-0.732;2022-07-29T03:07:48;3;3;
46240;PMS5003;31961;52.416;-0.732;2022-07-29T03:10:20;3;3;
46240;PMS5003;31961;52.416;-0.732;2022-07-29T03:12:49;3;2;
46240;PMS5003;31961;52.416;-0.732;2022-07-29T03:15:16;4;4;
46240;PMS5003;31961;52.416;-0.732;2022-07-29T03:17:45;4;3;
46240;PMS5003;31961;52.416;-0.732;2022-07-29T03:20:12;3;2;
46240;PMS5003;31961;52.416;-0.732;2022-07-29T03:22:40;3;3;
46240;PMS5003;31961;52.416;-0.732;2022-07-29T03:25:09;4;2;
46240;PMS5003;31961;52.416;-0.732;2022-07-29T03:27:36;2;2;
46240;PMS5003;31961;52.416;-0.732;2022-07-29T03:30:04;2;2;
46240;PMS5003;31961;52.416;-0.732;2022-07-29T03:32:33;3;3;
46240;PMS5003;31961;52.416;-0.732;2022-07-29T03:35:00;2;2;
46240;PMS5003;31961;52.416;-0.732;2022-07-29T03:37:28;4;3;
46240;PMS5003;31961;52.416;-0.732;2022-07-29T03:39:57;3;3;
46240;PMS5003;31961;52.416;-0.732;2022-07-29T03:42:25;2;2;
46240;PMS5003;31961;52.416;-0.732;2022-07-29T03:44:57;2;2;
46240;PMS5003;31961;52.416;-0.732;2022-07-29T03:47:26;4;4;
46240;PMS5003;31961;52.416;-0.732;2022-07-29T03:49:56;3;3;
46240;PMS5003;31961;52.416;-0.732;2022-07-29T03:52:28;5;3;
46240;PMS5003;31961;52.416;-0.732;2022-07-29T03:54:55;4;3;
46240;PMS5003;31961;52.416;-0.732;2022-07-29T03:57:23;4;3;
46240;PMS5003;31961;52.416;-0.732;2022-07-29T03:59:53;4;4;
46240;PMS5003;31961;52.416;-0.732;2022-07-29T04:02:21;4;3;
46240;PMS5003;31961;52.416;-0.732;2022-07-29T04:04:49;4;4;
46240;PMS5003;31961;52.416;-0.732;2022-07-29T04:07:17;1;1;
46240;PMS5003;31961;52.416;-0.732;2022-07-29T04:09:44;3;3;
46240;PMS5003;31961;52.416;-0.732;2022-07-29T04:12:12;4;3;
46240;PMS5003;31961;52.416;-0.732;2022-07-29T04:14:39;4;2;
46240;PMS5003;31961;52.416;-0.732;2022-07-29T04:17:07;4;4;
46240;PMS5003;31961;52.416;-0.732;2022-07-29T04:19:34;4;3;
46240;PMS5003;31961;52.416;-0.732;2022-07-29T04:22:02;2;2;
46240;PMS5003;31961;52.416;-0.732;2022-07-29T04:24:29;4;3;
46240;PMS5003;31961;52.416;-0.732;2022-07-29T04:26:57;2;2;
46240;PMS5003;31961;52.416;-0.732;2022-07-29T04:29:25;2;2;
46240;PMS5003;31961;52.416;-0.732;2022-07-29T04:31:52;2;2;
46240;PMS5003;31961;52.416;-0.732;2022-07-29T04:34:20;4;3;
46240;PMS5003;31961;52.416;-0.732;2022-07-29T04:36:47;5;3;
46240;PMS5003;31961;52.416;-0.732;2022-07-29T04:39:15;3;3;
46240;PMS5003;31961;52.416;-0.732;2022-07-29T04:41:42;2;2;
46240;PMS5003;31961;52.416;-0.732;2022-07-29T04:44:10;2;2;
46240;PMS5003;31961;52.416;-0.732;2022-07-29T04:46:37;2;2;
46240;PMS5003;31961;52.416;-0.732;2022-07-29T04:49:05;2;2;
46240;PMS5003;31961;52.416;-0.732;2022-07-29T04:51:33;3;3;
46240;PMS5003;31961;52.416;-0.732;2022-07-29T04:54:00;3;1;
46240;PMS5003;31961;52.416;-0.732;2022-07-29T04:56:28;3;3;
46240;PMS5003;31961;52.416;-0.732;2022-07-29T04:58:55;2;2;
46240;PMS5003;31961;52.416;-0.732;2022-07-29T05:01:23;3;3;
46240;PMS5003;31961;52.416;-0.732;2022-07-29T05:03:50;3;2;
46240;PMS5003;31961;52.416;-0.732;2022-07-29T05:06:18;2;2;
46240;PMS5003;31961;52.416;-0.732;2022-07-29T05:08:46;3;3;
46240;PMS5003;31961;52.416;-0.732;2022-07-29T05:11:13;4;3;
46240;PMS5003;31961;52.416;-0.732;2022-07-29T05:13:41;2;1;
46240;PMS5003;31961;52.416;-0.732;2022-07-29T05:16:08;4;4;
46240;PMS5003;31961;52.416;-0.732;2022-07-29T05:18:36;2;2;
46240;PMS5003;31961;52.416;-0.732;2022-07-29T05:21:03;2;2;
46240;PMS5003;31961;52.416;-0.732;2022-07-29T05:23:31;2;2;
46240;PMS5003;31961;52.416;-0.732;2022-07-29T05:25:59;2;2;
46240;PMS5003;31961;52.416;-0.732;2022-07-29T05:28:26;4;4;
46240;PMS5003;31961;52.416;-0.732;2022-07-29T05:30:54;4;4;
46240;PMS5003;31961;52.416;-0.732;2022-07-29T05:33:21;3;3;
46240;PMS5003;31961;52.416;-0.732;2022-07-29T05:35:49;5;2;
46240;PMS5003;31961;52.416;-0.732;2022-07-29T05:38:16;4;4;
46240;PMS5003;31961;52.416;-0.732;2022-07-29T05:40:44;4;3;
46240;PMS5003;31961;52.416;-0.732;2022-07-29T05:43:11;2;2;
46240;PMS5003;31961;52.416;-0.732;2022-07-29T05:45:39;3;3;
46240;PMS5003;31961;52.416;-0.732;2022-07-29T05:48:07;3;3;
46240;PMS5003;31961;52.416;-0.732;2022-07-29T05:50:34;4;4;
46240;PMS5003;31961;52.416;-0.732;2022-07-29T05:53:02;2;2;
46240;PMS5003;31961;52.416;-0.732;2022-07-29T05:55:29;3;3;
46240;PMS5003;31961;52.416;-0.732;2022-07-29T05:57:57;4;3;
46240;PMS5003;31961;52.416;-0.732;2022-07-29T06:00:24;2;2;
46240;PMS5003;31961;52.416;-0.732;2022-07-29T06:02:52;2;2;
46240;PMS5003;31961;52.416;-0.732;2022-07-29T06:05:20;4;4;
46240;PMS5003;31961;52.416;-0.732;2022-07-29T06:07:47;4;3;
46240;PMS5003;31961;52.416;-0.732;2022-07-29T06:10:15;2;2;
46240;PMS5003;31961;52.416;-0.732;2022-07-29T06:12:42;4;2;
46240;PMS5003;31961;52.416;-0.732;2022-07-29T06:15:10;2;2;
46240;PMS5003;31961;52.416;-0.732;2022-07-29T06:17:37;2;2;
46240;PMS5003;31961;52.416;-0.732;2022-07-29T06:20:05;1;1;
46240;PMS5003;31961;52.416;-0.732;2022-07-29T06:22:33;5;2;
46240;PMS5003;31961;52.416;-0.732;2022-07-29T06:25:01;2;2;
46240;PMS5003;31961;52.416;-0.732;2022-07-29T06:27:28;5;2;
46240;PMS5003;31961;52.416;-0.732;2022-07-29T06:29:56;2;2;
46240;PMS5003;31961;52.416;-0.732;2022-07-29T06:32:23;3;3;
46240;PMS5003;31961;52.416;-0.732;2022-07-29T06:34:51;3;2;
46240;PMS5003;31961;52.416;-0.732;2022-07-29T06:37:18;3;3;
46240;PMS5003;31961;52.416;-0.732;2022-07-29T06:39:46;1;1;
46240;PMS5003;31961;52.416;-0.732;2022-07-29T06:42:13;3;2;
46240;PMS5003;31961;52.416;-0.732;2022-07-29T06:44:41;5;3;
46240;PMS5003;31961;52.416;-0.732;2022-07-29T06:47:08;3;2;
46240;PMS5003;31961;52.416;-0.732;2022-07-29T06:49:36;5;4;
46240;PMS5003;31961;52.416;-0.732;2022-07-29T06:52:04;3;2;
46240;PMS5003;31961;52.416;-0.732;2022-07-29T06:54:31;4;2;
46240;PMS5003;31961;52.416;-0.732;2022-07-29T06:56:59;2;2;
46240;PMS5003;31961;52.416;-0.732;2022-07-29T06:59:27;3;3;
46240;PMS5003;31961;52.416;-0.732;2022-07-29T07:01:54;2;2;
46240;PMS5003;31961;52.416;-0.732;2022-07-29T07:04:21;4;3;
46240;PMS5003;31961;52.416;-0.732;2022-07-29T07:06:49;2;2;
46240;PMS5003;31961;52.416;-0.732;2022-07-29T07:09:16;2;2;
46240;PMS5003;31961;52.416;-0.732;2022-07-29T07:11:44;1;1;
46240;PMS5003;31961;52.416;-0.732;2022-07-29T07:14:12;2;2;
46240;PMS5003;31961;52.416;-0.732;2022-07-29T07:16:39;1;1;
46240;PMS5003;31961;52.416;-0.732;2022-07-29T07:19:07;0;0;
46240;PMS5003;31961;52.416;-0.732;2022-07-29T07:21:34;2;2;
46240;PMS5003;31961;52.416;-0.732;2022-07-29T07:24:02;2;1;
46240;PMS5003;31961;52.416;-0.732;2022-07-29T07:26:29;2;1;
46240;PMS5003;31961;52.416;-0.732;2022-07-29T07:28:57;2;2;
46240;PMS5003;31961;52.416;-0.732;2022-07-29T07:31:25;3;2;
46240;PMS5003;31961;52.416;-0.732;2022-07-29T07:33:52;2;2;
46240;PMS5003;31961;52.416;-0.732;2022-07-29T07:36:20;3;2;
46240;PMS5003;31961;52.416;-0.732;2022-07-29T07:38:47;3;3;
46240;PMS5003;31961;52.416;-0.732;2022-07-29T07:41:15;4;2;
46240;PMS5003;31961;52.416;-0.732;2022-07-29T07:43:42;5;4;
46240;PMS5003;31961;52.416;-0.732;2022-07-29T07:46:10;2;2;
46240;PMS5003;31961;52.416;-0.732;2022-07-29T07:48:37;2;2;
46240;PMS5003;31961;52.416;-0.732;2022-07-29T07:51:05;3;3;
46240;PMS5003;31961;52.416;-0.732;2022-07-29T07:53:32;4;3;
46240;PMS5003;31961;52.416;-0.732;2022-07-29T07:56:00;2;2;
46240;PMS5003;31961;52.416;-0.732;2022-07-29T07:58:27;3;2;
46240;PMS5003;31961;52.416;-0.732;2022-07-29T08:00:55;2;2;
46240;PMS5003;31961;52.416;-0.732;2022-07-29T08:03:22;3;3;
46240;PMS5003;31961;52.416;-0.732;2022-07-29T08:05:50;5;3;
46240;PMS5003;31961;52.416;-0.732;2022-07-29T08:08:18;2;2;
46240;PMS5003;31961;52.416;-0.732;2022-07-29T08:10:45;2;2;
46240;PMS5003;31961;52.416;-0.732;2022-07-29T08:13:13;3;3;
46240;PMS5003;31961;52.416;-0.732;2022-07-29T08:15:40;2;2;
46240;PMS5003;31961;52.416;-0.732;2022-07-29T08:18:08;4;2;
46240;PMS5003;31961;52.416;-0.732;2022-07-29T08:20:35;3;3;
46240;PMS5003;31961;52.416;-0.732;2022-07-29T08:23:03;3;3;
46240;PMS5003;31961;52.416;-0.732;2022-07-29T08:25:31;2;2;
46240;PMS5003;31961;52.416;-0.732;2022-07-29T08:27:59;1;1;
46240;PMS5003;31961;52.416;-0.732;2022-07-29T08:30:26;3;3;
46240;PMS5003;31961;52.416;-0.732;2022-07-29T08:32:54;2;2;
46240;PMS5003;31961;52.416;-0.732;2022-07-29T08:35:22;2;2;
46240;PMS5003;31961;52.416;-0.732;2022-07-29T08:37:50;3;2;
46240;PMS5003;31961;52.416;-0.732;2022-07-29T08:40:17;2;2;
46240;PMS5003;31961;52.416;-0.732;2022-07-29T08:42:46;2;2;
46240;PMS5003;31961;52.416;-0.732;2022-07-29T08:45:13;3;3;
46240;PMS5003;31961;52.416;-0.732;2022-07-29T08:47:41;0;0;
46240;PMS5003;31961;52.416;-0.732;2022-07-29T08:50:10;2;2;
46240;PMS5003;31961;52.416;-0.732;2022-07-29T08:52:38;4;2;
46240;PMS5003;31961;52.416;-0.732;2022-07-29T08:55:08;2;2;
46240;PMS5003;31961;52.416;-0.732;2022-07-29T08:57:35;3;3;
46240;PMS5003;31961;52.416;-0.732;2022-07-29T09:00:05;4;2;
46240;PMS5003;31961;52.416;-0.732;2022-07-29T09:02:36;3;2;
46240;PMS5003;31961;52.416;-0.732;2022-07-29T09:05:07;4;2;
46240;PMS5003;31961;52.416;-0.732;2022-07-29T09:07:34;4;3;
46240;PMS5003;31961;52.416;-0.732;2022-07-29T09:10:03;3;1;
46240;PMS5003;31961;52.416;-0.732;2022-07-29T09:12:32;1;1;
46240;PMS5003;31961;52.416;-0.732;2022-07-29T09:14:59;2;2;
46240;PMS5003;31961;52.416;-0.732;2022-07-29T09:17:43;2;2;
46240;PMS5003;31961;52.416;-0.732;2022-07-29T09:20:13;2;2;
46240;PMS5003;31961;52.416;-0.732;2022-07-29T09:22:42;2;2;
46240;PMS5003;31961;52.416;-0.732;2022-07-29T09:25:11;3;3;
46240;PMS5003;31961;52.416;-0.732;2022-07-29T09:27:39;3;3;
46240;PMS5003;31961;52.416;-0.732;2022-07-29T09:30:07;3;3;
46240;PMS5003;31961;52.416;-0.732;2022-07-29T09:32:53;2;2;
46240;PMS5003;31961;52.416;-0.732;2022-07-29T09:35:23;3;3;
46240;PMS5003;31961;52.416;-0.732;2022-07-29T09:37:53;3;2;
46240;PMS5003;31961;52.416;-0.732;2022-07-29T09:40:22;2;2;
46240;PMS5003;31961;52.416;-0.732;2022-07-29T09:42:50;4;3;
46240;PMS5003;31961;52.416;-0.732;2022-07-29T09:45:29;3;3;
46240;PMS5003;31961;52.416;-0.732;2022-07-29T09:47:57;1;1;
46240;PMS5003;31961;52.416;-0.732;2022-07-29T09:50:42;3;3;
46240;PMS5003;31961;52.416;-0.732;2022-07-29T09:53:10;2;2;
46240;PMS5003;31961;52.416;-0.732;2022-07-29T09:55:54;5;2;
46240;PMS5003;31961;52.416;-0.732;2022-07-29T09:58:21;3;3;
46240;PMS5003;31961;52.416;-0.732;2022-07-29T10:00:49;2;2;
46240;PMS5003;31961;52.416;-0.732;2022-07-29T10:03:17;4;1;
46240;PMS5003;31961;52.416;-0.732;2022-07-29T10:05:45;2;2;
46240;PMS5003;31961;52.416;-0.732;2022-07-29T10:08:29;3;1;
46240;PMS5003;31961;52.416;-0.732;2022-07-29T10:11:08;4;3;
46240;PMS5003;31961;52.416;-0.732;2022-07-29T10:13:36;3;3;
46240;PMS5003;31961;52.416;-0.732;2022-07-29T10:16:05;2;2;
46240;PMS5003;31961;52.416;-0.732;2022-07-29T10:18:32;1;1;
46240;PMS5003;31961;52.416;-0.732;2022-07-29T10:21:01;3;3;
46240;PMS5003;31961;52.416;-0.732;2022-07-29T10:23:28;2;2;
46240;PMS5003;31961;52.416;-0.732;2022-07-29T10:25:57;2;2;
46240;PMS5003;31961;52.416;-0.732;2022-07-29T10:28:24;1;1;
46240;PMS5003;31961;52.416;-0.732;2022-07-29T10:30:52;4;3;
46240;PMS5003;31961;52.416;-0.732;2022-07-29T10:33:31;4;3;
46240;PMS5003;31961;52.416;-0.732;2022-07-29T10:36:20;2;2;
46240;PMS5003;31961;52.416;-0.732;2022-07-29T10:39:00;3;3;
46240;PMS5003;31961;52.416;-0.732;2022-07-29T10:41:39;2;2;
46240;PMS5003;31961;52.416;-0.732;2022-07-29T10:44:18;3;2;
46240;PMS5003;31961;52.416;-0.732;2022-07-29T10:46:46;2;2;
46240;PMS5003;31961;52.416;-0.732;2022-07-29T10:49:14;3;2;
46240;PMS5003;31961;52.416;-0.732;2022-07-29T10:52:14;3;2;
46240;PMS5003;31961;52.416;-0.732;2022-07-29T10:54:42;3;3;
46240;PMS5003;31961;52.416;-0.732;2022-07-29T10:57:11;1;1;
46240;PMS5003;31961;52.416;-0.732;2022-07-29T10:59:39;3;2;
46240;PMS5003;31961;52.416;-0.732;2022-07-29T11:02:40;3;3;
46240;PMS5003;31961;52.416;-0.732;2022-07-29T11:05:09;2;2;
46240;PMS5003;31961;52.416;-0.732;2022-07-29T11:07:39;3;3;
46240;PMS5003;31961;52.416;-0.732;2022-07-29T11:10:42;4;4;
46240;PMS5003;31961;52.416;-0.732;2022-07-29T11:13:10;3;2;
46240;PMS5003;31961;52.416;-0.732;2022-07-29T11:15:51;4;3;
46240;PMS5003;31961;52.416;-0.732;2022-07-29T11:18:19;4;4;
46240;PMS5003;31961;52.416;-0.732;2022-07-29T11:20:47;2;2;
46240;PMS5003;31961;52.416;-0.732;2022-07-29T11:23:19;1;1;
46240;PMS5003;31961;52.416;-0.732;2022-07-29T11:26:12;4;4;
46240;PMS5003;31961;52.416;-0.732;2022-07-29T11:28:48;4;4;
46240;PMS5003;31961;52.416;-0.732;2022-07-29T11:31:19;4;3;
46240;PMS5003;31961;52.416;-0.732;2022-07-29T11:34:15;5;5;
46240;PMS5003;31961;52.416;-0.732;2022-07-29T11:37:19;4;3;
46240;PMS5003;31961;52.416;-0.732;2022-07-29T11:40:07;5;5;
46240;PMS5003;31961;52.416;-0.732;2022-07-29T11:42:42;3;3;
46240;PMS5003;31961;52.416;-0.732;2022-07-29T11:45:10;3;3;
46240;PMS5003;31961;52.416;-0.732;2022-07-29T11:47:40;4;4;
46240;PMS5003;31961;52.416;-0.732;2022-07-29T11:50:14;3;3;
46240;PMS5003;31961;52.416;-0.732;2022-07-29T11:52:44;3;3;
46240;PMS5003;31961;52.416;-0.732;2022-07-29T11:55:13;3;2;
46240;PMS5003;31961;52.416;-0.732;2022-07-29T11:57:45;2;2;
46240;PMS5003;31961;52.416;-0.732;2022-07-29T12:00:20;4;3;
46240;PMS5003;31961;52.416;-0.732;2022-07-29T12:02:50;2;2;
46240;PMS5003;31961;52.416;-0.732;2022-07-29T12:05:17;5;5;
46240;PMS5003;31961;52.416;-0.732;2022-07-29T12:07:45;5;5;
46240;PMS5003;31961;52.416;-0.732;2022-07-29T12:10:13;6;4;
46240;PMS5003;31961;52.416;-0.732;2022-07-29T12:12:41;3;3;
46240;PMS5003;31961;52.416;-0.732;2022-07-29T12:15:12;4;4;
46240;PMS5003;31961;52.416;-0.732;2022-07-29T12:17:41;6;6;
46240;PMS5003;31961;52.416;-0.732;2022-07-29T12:20:08;4;4;
46240;PMS5003;31961;52.416;-0.732;2022-07-29T12:22:36;3;3;
46240;PMS5003;31961;52.416;-0.732;2022-07-29T12:25:06;5;5;
46240;PMS5003;31961;52.416;-0.732;2022-07-29T12:27:34;6;4;
46240;PMS5003;31961;52.416;-0.732;2022-07-29T12:30:03;8;8;
46240;PMS5003;31961;52.416;-0.732;2022-07-29T12:32:33;4;4;
46240;PMS5003;31961;52.416;-0.732;2022-07-29T12:35:03;6;6;
46240;PMS5003;31961;52.416;-0.732;2022-07-29T12:37:32;5;5;
46240;PMS5003;31961;52.416;-0.732;2022-07-29T12:40:01;5;5;
46240;PMS5003;31961;52.416;-0.732;2022-07-29T12:42:30;6;6;
46240;PMS5003;31961;52.416;-0.732;2022-07-29T12:44:58;3;3;
46240;PMS5003;31961;52.416;-0.732;2022-07-29T12:47:25;4;4;
46240;PMS5003;31961;52.416;-0.732;2022-07-29T12:50:07;5;4;
46240;PMS5003;31961;52.416;-0.732;2022-07-29T12:52:35;4;4;
46240;PMS5003;31961;52.416;-0.732;2022-07-29T12:55:03;6;6;
46240;PMS5003;31961;52.416;-0.732;2022-07-29T12:57:31;4;4;
46240;PMS5003;31961;52.416;-0.732;2022-07-29T13:00:11;3;3;
46240;PMS5003;31961;52.416;-0.732;2022-07-29T13:02:40;5;5;
46240;PMS5003;31961;52.416;-0.732;2022-07-29T13:05:09;5;5;
46240;PMS5003;31961;52.416;-0.732;2022-07-29T13:07:37;7;6;
46240;PMS5003;31961;52.416;-0.732;2022-07-29T13:10:13;6;6;
46240;PMS5003;31961;52.416;-0.732;2022-07-29T13:13:14;9;6;
46240;PMS5003;31961;52.416;-0.732;2022-07-29T13:15:42;5;5;
46240;PMS5003;31961;52.416;-0.732;2022-07-29T13:18:26;6;4;
46240;PMS5003;31961;52.416;-0.732;2022-07-29T13:20:54;5;5;
46240;PMS5003;31961;52.416;-0.732;2022-07-29T13:23:22;5;5;
46240;PMS5003;31961;52.416;-0.732;2022-07-29T13:25:49;9;6;
46240;PMS5003;31961;52.416;-0.732;2022-07-29T13:28:16;5;5;
46240;PMS5003;31961;52.416;-0.732;2022-07-29T13:30:44;7;6;
46240;PMS5003;31961;52.416;-0.732;2022-07-29T13:33:11;5;5;
46240;PMS5003;31961;52.416;-0.732;2022-07-29T13:35:40;6;5;
46240;PMS5003;31961;52.416;-0.732;2022-07-29T13:38:06;7;6;
46240;PMS5003;31961;52.416;-0.732;2022-07-29T13:40:34;7;7;
46240;PMS5003;31961;52.416;-0.732;2022-07-29T13:43:01;7;6;
46240;PMS5003;31961;52.416;-0.732;2022-07-29T13:45:29;7;6;
46240;PMS5003;31961;52.416;-0.732;2022-07-29T13:47:57;7;7;
46240;PMS5003;31961;52.416;-0.732;2022-07-29T13:50:24;7;6;
46240;PMS5003;31961;52.416;-0.732;2022-07-29T13:52:52;5;5;
46240;PMS5003;31961;52.416;-0.732;2022-07-29T13:55:19;6;6;
46240;PMS5003;31961;52.416;-0.732;2022-07-29T13:57:47;6;6;
46240;PMS5003;31961;52.416;-0.732;2022-07-29T14:00:15;5;5;
46240;PMS5003;31961;52.416;-0.732;2022-07-29T14:02:42;6;6;
46240;PMS5003;31961;52.416;-0.732;2022-07-29T14:05:10;4;4;
46240;PMS5003;31961;52.416;-0.732;2022-07-29T14:07:37;6;6;
46240;PMS5003;31961;52.416;-0.732;2022-07-29T14:10:05;7;7;
46240;PMS5003;31961;52.416;-0.732;2022-07-29T14:12:33;6;6;
46240;PMS5003;31961;52.416;-0.732;2022-07-29T14:15:01;6;6;
46240;PMS5003;31961;52.416;-0.732;2022-07-29T14:17:28;6;6;
46240;PMS5003;31961;52.416;-0.732;2022-07-29T14:19:56;7;6;
46240;PMS5003;31961;52.416;-0.732;2022-07-29T14:22:23;6;6;
46240;PMS5003;31961;52.416;-0.732;2022-07-29T14:24:50;7;5;
46240;PMS5003;31961;52.416;-0.732;2022-07-29T14:27:18;6;6;
46240;PMS5003;31961;52.416;-0.732;2022-07-29T14:29:45;6;6;
46240;PMS5003;31961;52.416;-0.732;2022-07-29T14:32:13;3;3;
46240;PMS5003;31961;52.416;-0.732;2022-07-29T14:34:40;5;5;
46240;PMS5003;31961;52.416;-0.732;2022-07-29T14:37:08;6;6;
46240;PMS5003;31961;52.416;-0.732;2022-07-29T14:39:36;5;5;
46240;PMS5003;31961;52.416;-0.732;2022-07-29T14:42:03;6;6;
46240;PMS5003;31961;52.416;-0.732;2022-07-29T14:44:31;5;5;
46240;PMS5003;31961;52.416;-0.732;2022-07-29T14:46:58;6;6;
46240;PMS5003;31961;52.416;-0.732;2022-07-29T14:49:26;5;4;
46240;PMS5003;31961;52.416;-0.732;2022-07-29T14:51:53;5;5;
46240;PMS5003;31961;52.416;-0.732;2022-07-29T14:54:21;6;6;
46240;PMS5003;31961;52.416;-0.732;2022-07-29T14:56:48;9;7;
46240;PMS5003;31961;52.416;-0.732;2022-07-29T14:59:16;7;7;
46240;PMS5003;31961;52.416;-0.732;2022-07-29T15:01:44;5;5;
46240;PMS5003;31961;52.416;-0.732;2022-07-29T15:04:11;6;6;
46240;PMS5003;31961;52.416;-0.732;2022-07-29T15:06:39;5;5;
46240;PMS5003;31961;52.416;-0.732;2022-07-29T15:09:06;6;5;
46240;PMS5003;31961;52.416;-0.732;2022-07-29T15:11:33;6;6;
46240;PMS5003;31961;52.416;-0.732;2022-07-29T15:14:00;7;7;
46240;PMS5003;31961;52.416;-0.732;2022-07-29T15:16:28;6;6;
46240;PMS5003;31961;52.416;-0.732;2022-07-29T15:18:56;5;5;
46240;PMS5003;31961;52.416;-0.732;2022-07-29T15:21:23;6;6;
46240;PMS5003;31961;52.416;-0.732;2022-07-29T15:23:51;7;5;
46240;PMS5003;31961;52.416;-0.732;2022-07-29T15:26:18;10;7;
46240;PMS5003;31961;52.416;-0.732;2022-07-29T15:28:46;6;6;
46240;PMS5003;31961;52.416;-0.732;2022-07-29T15:31:13;5;5;
46240;PMS5003;31961;52.416;-0.732;2022-07-29T15:33:41;7;6;
46240;PMS5003;31961;52.416;-0.732;2022-07-29T15:36:08;9;7;
46240;PMS5003;31961;52.416;-0.732;2022-07-29T15:38:35;6;5;
46240;PMS5003;31961;52.416;-0.732;2022-07-29T15:41:03;9;7;
46240;PMS5003;31961;52.416;-0.732;2022-07-29T15:43:30;7;7;
46240;PMS5003;31961;52.416;-0.732;2022-07-29T15:45:58;7;7;
46240;PMS5003;31961;52.416;-0.732;2022-07-29T15:48:25;4;4;
46240;PMS5003;31961;52.416;-0.732;2022-07-29T15:50:53;9;7;
46240;PMS5003;31961;52.416;-0.732;2022-07-29T15:53:21;7;7;
46240;PMS5003;31961;52.416;-0.732;2022-07-29T15:55:48;5;5;
46240;PMS5003;31961;52.416;-0.732;2022-07-29T15:58:16;9;7;
46240;PMS5003;31961;52.416;-0.732;2022-07-29T16:00:43;6;6;
46240;PMS5003;31961;52.416;-0.732;2022-07-29T16:03:11;7;6;
46240;PMS5003;31961;52.416;-0.732;2022-07-29T16:05:39;5;5;
46240;PMS5003;31961;52.416;-0.732;2022-07-29T16:08:07;7;7;
46240;PMS5003;31961;52.416;-0.732;2022-07-29T16:10:34;9;7;
46240;PMS5003;31961;52.416;-0.732;2022-07-29T16:13:01;6;6;
46240;PMS5003;31961;52.416;-0.732;2022-07-29T16:15:29;7;7;
46240;PMS5003;31961;52.416;-0.732;2022-07-29T16:17:56;7;7;
46240;PMS5003;31961;52.416;-0.732;2022-07-29T16:20:24;6;6;
46240;PMS5003;31961;52.416;-0.732;2022-07-29T16:22:51;6;6;
46240;PMS5003;31961;52.416;-0.732;2022-07-29T16:25:19;7;7;
46240;PMS5003;31961;52.416;-0.732;2022-07-29T16:27:46;8;7;
46240;PMS5003;31961;52.416;-0.732;2022-07-29T16:30:13;6;6;
46240;PMS5003;31961;52.416;-0.732;2022-07-29T16:32:41;5;5;
46240;PMS5003;31961;52.416;-0.732;2022-07-29T16:35:08;5;5;
46240;PMS5003;31961;52.416;-0.732;2022-07-29T16:37:36;4;4;
46240;PMS5003;31961;52.416;-0.732;2022-07-29T16:40:05;6;6;
46240;PMS5003;31961;52.416;-0.732;2022-07-29T16:42:33;7;7;
46240;PMS5003;31961;52.416;-0.732;2022-07-29T16:45:01;5;5;
46240;PMS5003;31961;52.416;-0.732;2022-07-29T16:47:28;7;5;